Time;durP1;ratioP1;P1;durP2;ratioP2;P2;SDS_P1;SDS_P2;PMS_P1;PMS_P2;Temp;Humidity;BMP_temperature;BMP_pressure;BME280_temperature;BME280_humidity;BME280_pressure;Samples;Min_cycle;Max_cycle;Signal;HPM_P1;HPM_P2
2022/01/02 00:02:28;;;;;;;1999.90;999.90;;;13.40;99.90;;;;;;5112091;27;20047;-87
2022/01/02 00:05:03;;;;;;;1999.90;999.90;;;13.50;99.90;;;;;;5114256;27;20479;-86
2022/01/02 00:07:31;;;;;;;1999.90;991.53;;;15.00;99.90;;;;;;5133024;27;20082;-88
2022/01/02 00:10:04;;;;;;;1999.90;999.90;;;13.30;99.90;;;;;;5149848;27;20034;-84
2022/01/02 00:12:33;;;;;;;1999.90;779.45;;;13.30;99.90;;;;;;5151653;27;20043;-92
2022/01/02 00:15:04;;;;;;;1999.90;999.90;;;13.20;99.90;;;;;;5151283;27;20350;-86
2022/01/02 00:17:31;;;;;;;1999.90;999.90;;;13.50;99.90;;;;;;5120354;27;20145;-85
2022/01/02 00:20:03;;;;;;;1999.90;999.90;;;13.50;99.90;;;;;;5151557;27;20039;-86
2022/01/02 00:22:35;;;;;;;1999.90;999.90;;;13.80;99.90;;;;;;5119535;27;20039;-86
2022/01/02 00:25:08;;;;;;;1999.90;999.90;;;13.50;99.90;;;;;;5132082;27;20106;-85
2022/01/02 00:27:37;;;;;;;1999.90;792.42;;;13.90;99.90;;;;;;5132235;27;20453;-90
2022/01/02 00:30:05;;;;;;;1999.90;833.05;;;14.10;99.90;;;;;;5132473;27;20505;-85
2022/01/02 00:32:33;;;;;;;1999.90;999.90;;;13.70;99.90;;;;;;5132336;27;20034;-85
2022/01/02 00:34:59;;;;;;;;;;;13.90;99.90;;;;;;5151629;27;20065;-85
2022/01/02 00:37:25;;;;;;;1999.90;705.67;;;14.20;99.90;;;;;;5151298;27;19926;-87
2022/01/02 00:39:51;;;;;;;1999.90;999.90;;;14.10;99.90;;;;;;5114877;27;20043;-85
2022/01/02 00:42:30;;;;;;;1999.90;917.17;;;13.70;99.90;;;;;;5147142;27;20126;-88
2022/01/02 00:45:00;;;;;;;1999.90;936.83;;;13.40;99.90;;;;;;5108543;27;20158;-85
2022/01/02 00:47:36;;;;;;;1999.90;860.60;;;13.90;99.90;;;;;;5133112;27;20117;-87
2022/01/02 00:50:04;;;;;;;1999.90;890.38;;;13.80;99.90;;;;;;5132783;27;20055;-86
2022/01/02 00:52:35;;;;;;;1999.90;999.90;;;13.20;99.90;;;;;;5132272;27;20050;-86
2022/01/02 00:55:03;;;;;;;1999.90;999.90;;;13.70;99.90;;;;;;5150849;27;20526;-85
2022/01/02 00:57:41;;;;;;;1999.90;902.10;;;13.50;99.90;;;;;;5129170;27;20054;-86
2022/01/02 01:00:08;;;;;;;;;;;14.10;99.90;;;;;;5152332;27;20034;-86
2022/01/02 01:02:55;;;;;;;1999.90;999.90;;;13.20;99.90;;;;;;5150540;27;20375;-86
2022/01/02 01:05:25;;;;;;;1999.90;893.03;;;13.60;99.90;;;;;;5151046;27;20336;-85
2022/01/02 01:08:09;;;;;;;1907.60;354.42;;;14.00;99.90;;;;;;5131267;27;20049;-85
2022/01/02 01:10:38;;;;;;;1999.90;833.67;;;13.60;99.90;;;;;;5121595;27;20491;-90
2022/01/02 01:13:08;;;;;;;1999.90;999.90;;;14.00;99.90;;;;;;5150302;27;20042;-87
2022/01/02 01:15:35;;;;;;;1999.90;983.33;;;12.20;99.90;;;;;;5119586;27;20039;-87
2022/01/02 01:18:03;;;;;;;1999.90;999.90;;;13.40;99.90;;;;;;5123026;27;20502;-86
2022/01/02 01:20:44;;;;;;;1999.90;443.65;;;14.40;99.90;;;;;;5144946;27;20080;-90
2022/01/02 01:23:15;;;;;;;1999.90;846.03;;;13.40;99.90;;;;;;5123535;28;20116;-85
2022/01/02 01:25:45;;;;;;;1999.90;953.70;;;13.30;99.90;;;;;;5147824;27;20057;-85
2022/01/02 01:28:12;;;;;;;1999.90;999.90;;;13.40;99.90;;;;;;5147108;27;20070;-86
2022/01/02 01:30:38;;;;;;;1999.90;999.90;;;13.40;99.90;;;;;;5113761;27;20069;-86
2022/01/02 01:33:04;;;;;;;1999.90;999.90;;;14.30;99.90;;;;;;5145046;27;20039;-85
2022/01/02 01:35:30;;;;;;;1999.90;506.75;;;14.00;99.90;;;;;;5130247;27;20134;-86
2022/01/02 01:37:55;;;;;;;1999.90;999.90;;;13.50;99.90;;;;;;5131516;27;20050;-84
2022/01/02 01:40:22;;;;;;;1999.90;999.90;;;14.20;99.90;;;;;;5147552;27;20054;-85
2022/01/02 01:43:01;;;;;;;1556.30;583.28;;;14.10;99.90;;;;;;5134021;27;20046;-85
2022/01/02 01:48:05;;;;;;;1999.90;901.20;;;13.50;99.90;;;;;;5147972;27;20069;-81
2022/01/02 01:50:39;;;;;;;1999.90;755.13;;;14.00;99.90;;;;;;5145916;27;20388;-80
2022/01/02 01:53:07;;;;;;;1603.75;619.50;;;14.10;99.90;;;;;;5141892;27;20054;-81
2022/01/02 01:55:34;;;;;;;;;;;14.40;99.90;;;;;;5148756;27;20043;-81
2022/01/02 01:58:02;;;;;;;1999.90;576.33;;;13.70;99.90;;;;;;5145173;27;19926;-80
2022/01/02 02:00:28;;;;;;;1999.90;904.38;;;15.40;99.90;;;;;;5149576;27;20054;-81
2022/01/02 02:02:56;;;;;;;1639.45;650.80;;;13.30;99.90;;;;;;5146390;27;20046;-81
2022/01/02 02:05:21;;;;;;;1999.90;999.90;;;13.40;99.90;;;;;;5153371;27;20042;-81
2022/01/02 02:07:47;;;;;;;1959.88;617.15;;;14.20;99.90;;;;;;5150061;27;20042;-80
2022/01/02 02:10:18;;;;;;;1999.90;999.90;;;13.20;99.90;;;;;;5129249;27;20047;-80
2022/01/02 02:12:46;;;;;;;1999.90;917.50;;;13.40;99.90;;;;;;5151710;27;20047;-80
2022/01/02 02:15:15;;;;;;;1999.90;687.33;;;13.40;99.90;;;;;;5138466;27;20054;-79
2022/01/02 02:17:43;;;;;;;1999.90;999.90;;;13.50;99.90;;;;;;5151052;27;20551;-86
2022/01/02 02:20:16;;;;;;;1999.90;597.25;;;13.90;99.90;;;;;;5144630;27;20134;-79
2022/01/02 02:22:45;;;;;;;1999.90;989.55;;;13.50;99.90;;;;;;5144241;27;20070;-86
2022/01/02 02:25:12;;;;;;;1999.90;999.90;;;13.70;99.90;;;;;;5149404;27;20042;-79
2022/01/02 02:27:38;;;;;;;1999.90;999.90;;;13.20;99.90;;;;;;5149961;27;20046;-79
2022/01/02 02:30:05;;;;;;;1999.90;956.83;;;13.90;99.90;;;;;;5151152;27;20049;-78
2022/01/02 02:32:32;;;;;;;1999.90;989.35;;;13.80;99.90;;;;;;5148889;27;20091;-84
2022/01/02 02:34:57;;;;;;;1902.65;854.08;;;13.10;99.90;;;;;;5117208;27;20124;-79
2022/01/02 02:37:25;;;;;;;1999.90;999.90;;;13.30;99.90;;;;;;5110158;27;20150;-78
2022/01/02 02:39:51;;;;;;;1913.50;375.08;;;15.20;99.90;;;;;;5086194;27;20105;-81
2022/01/02 02:42:39;;;;;;;1999.90;999.90;;;13.10;99.90;;;;;;5101005;28;20046;-80
2022/01/02 02:50:45;;;;;;;1999.90;874.15;;;14.20;99.90;;;;;;5109152;27;20055;-81
2022/01/02 02:53:10;;;;;;;1999.90;999.90;;;13.30;99.90;;;;;;5108620;27;20044;-81
2022/01/02 02:55:43;;;;;;;1999.90;999.90;;;13.20;99.90;;;;;;5101935;28;20042;-81
2022/01/02 02:58:37;;;;;;;1999.90;999.90;;;13.90;99.90;;;;;;5106993;27;20056;-81
2022/01/02 03:00:55;;;;;;;1999.90;999.90;;;13.40;99.90;;;;;;5116740;27;20070;-82
2022/01/02 03:03:20;;;;;;;1999.90;999.90;;;13.90;99.90;;;;;;5099755;27;20441;-81
2022/01/02 03:05:46;;;;;;;1999.90;999.90;;;14.00;99.90;;;;;;5105892;27;20059;-90
2022/01/02 03:08:12;;;;;;;1999.90;999.90;;;14.00;99.90;;;;;;5078535;28;20463;-81
2022/01/02 03:10:37;;;;;;;1999.90;999.90;;;14.00;99.90;;;;;;5079082;28;20040;-81
2022/01/02 03:13:03;;;;;;;1999.90;999.90;;;13.60;99.90;;;;;;5095296;27;20047;-82
2022/01/02 03:15:29;;;;;;;1999.90;999.90;;;13.60;99.90;;;;;;5108857;27;20127;-81
2022/01/02 03:17:54;;;;;;;1724.10;792.80;;;14.90;99.90;;;;;;5106370;27;20046;-80
2022/01/02 03:20:20;;;;;;;1999.90;999.90;;;13.50;99.90;;;;;;5091982;27;20480;-81
2022/01/02 03:22:46;;;;;;;1999.90;784.20;;;13.70;99.90;;;;;;5108781;27;20440;-81
2022/01/02 03:25:14;;;;;;;1999.90;999.90;;;15.30;99.90;;;;;;5110701;27;21559;-81
2022/01/02 03:27:43;;;;;;;1999.90;999.90;;;14.00;99.90;;;;;;5084837;28;20060;-80
2022/01/02 03:30:10;;;;;;;1758.07;790.65;;;13.50;99.90;;;;;;5100451;27;20249;-81
2022/01/02 03:32:36;;;;;;;962.28;319.23;;;13.40;99.90;;;;;;5112319;27;20116;-80
2022/01/02 03:35:02;;;;;;;1999.90;999.90;;;;;;;;;;5131946;27;20129;-83
2022/01/02 03:37:29;;;;;;;1999.90;999.90;;;14.10;99.90;;;;;;5141608;27;20051;-80
2022/01/02 03:39:57;;;;;;;1999.90;999.90;;;14.10;99.90;;;;;;5146035;27;20114;-81
2022/01/02 03:42:23;;;;;;;1999.90;547.03;;;13.50;99.90;;;;;;5147524;27;20047;-80
2022/01/02 03:44:49;;;;;;;1999.90;999.90;;;13.60;99.90;;;;;;5137005;27;20109;-88
2022/01/02 03:47:15;;;;;;;1999.90;999.90;;;13.50;99.90;;;;;;5137510;27;20039;-80
2022/01/02 03:49:40;;;;;;;1509.65;619.20;;;13.90;99.90;;;;;;5142754;27;20134;-81
2022/01/02 03:52:06;;;;;;;1999.90;788.20;;;13.70;99.90;;;;;;5146820;27;20043;-83
2022/01/02 03:54:32;;;;;;;1999.90;854.33;;;13.90;99.90;;;;;;5150275;27;20117;-81
2022/01/02 03:56:58;;;;;;;1999.90;999.90;;;13.40;99.90;;;;;;5146345;27;20481;-81
2022/01/02 03:59:23;;;;;;;1999.90;999.90;;;13.40;99.90;;;;;;5145171;27;20121;-80
2022/01/02 04:01:49;;;;;;;1999.90;409.08;;;15.50;99.90;;;;;;5148997;27;20050;-82
2022/01/02 04:04:16;;;;;;;1999.90;999.90;;;14.10;99.90;;;;;;5147156;27;20042;-81
2022/01/02 04:06:42;;;;;;;1999.90;745.00;;;14.10;99.90;;;;;;5149062;27;20046;-81
2022/01/02 04:09:08;;;;;;;1999.90;999.90;;;14.10;99.90;;;;;;5148329;27;20042;-81
2022/01/02 04:11:33;;;;;;;1999.90;576.70;;;13.70;99.90;;;;;;5150429;27;20039;-80
2022/01/02 04:13:59;;;;;;;1999.90;999.90;;;13.70;99.90;;;;;;5131759;27;20053;-80
2022/01/02 04:16:25;;;;;;;1999.90;999.25;;;15.00;99.90;;;;;;5145862;27;20051;-79
2022/01/02 04:18:50;;;;;;;1999.90;967.97;;;15.20;99.90;;;;;;5148181;27;20081;-82
2022/01/02 04:21:16;;;;;;;1999.90;999.90;;;13.90;99.90;;;;;;5145579;27;20035;-83
2022/01/02 04:23:42;;;;;;;1633.43;777.78;;;14.30;99.90;;;;;;5126432;27;20117;-82
2022/01/02 04:26:08;;;;;;;1999.90;999.90;;;13.90;99.90;;;;;;5148580;27;20042;-81
2022/01/02 04:28:34;;;;;;;1462.47;562.33;;;13.60;99.90;;;;;;5141203;27;20221;-81
2022/01/02 04:31:00;;;;;;;1999.90;999.90;;;13.70;99.90;;;;;;5129369;27;20046;-89
2022/01/02 04:33:26;;;;;;;1999.90;999.90;;;14.30;99.90;;;;;;5142094;27;20126;-80
2022/01/02 04:35:52;;;;;;;1999.90;999.90;;;14.00;99.90;;;;;;5150802;27;20133;-81
2022/01/02 04:38:18;;;;;;;1999.90;999.90;;;13.90;99.90;;;;;;5122490;27;20034;-81
2022/01/02 04:40:44;;;;;;;1999.90;999.90;;;14.30;99.90;;;;;;5137986;27;20070;-82
2022/01/02 04:43:10;;;;;;;1999.90;999.90;;;14.20;99.90;;;;;;5119133;27;20057;-82
2022/01/02 04:45:36;;;;;;;1999.90;999.90;;;14.30;99.90;;;;;;5150176;27;20422;-82
2022/01/02 04:48:01;;;;;;;1999.90;999.90;;;14.10;99.90;;;;;;5148838;27;20046;-81
2022/01/02 04:50:27;;;;;;;1999.90;999.90;;;14.20;99.90;;;;;;5132122;27;20047;-81
2022/01/02 04:52:53;;;;;;;1999.90;999.90;;;14.30;99.90;;;;;;5142928;27;20050;-81
2022/01/02 04:55:19;;;;;;;1906.80;774.28;;;13.80;99.90;;;;;;5131976;27;20061;-81
2022/01/02 04:57:44;;;;;;;1999.90;346.88;;;14.10;99.90;;;;;;5142391;27;20157;-82
2022/01/02 05:00:11;;;;;;;1999.90;999.90;;;13.90;99.90;;;;;;5150717;27;20114;-82
2022/01/02 05:02:36;;;;;;;1732.10;793.15;;;14.40;99.90;;;;;;5146890;27;20136;-81
2022/01/02 05:05:03;;;;;;;1999.90;999.90;;;14.40;99.90;;;;;;5149518;27;20042;-81
2022/01/02 05:07:29;;;;;;;1999.90;999.90;;;14.30;99.90;;;;;;5125492;27;20054;-85
2022/01/02 05:09:54;;;;;;;1999.90;999.90;;;14.00;99.90;;;;;;5151005;27;20035;-80
2022/01/02 05:12:20;;;;;;;1999.90;999.90;;;13.70;99.90;;;;;;5153997;27;20446;-83
2022/01/02 05:14:46;;;;;;;1940.80;188.30;;;14.10;99.90;;;;;;5155624;27;20506;-83
2022/01/02 05:17:12;;;;;;;1999.90;647.13;;;13.70;99.90;;;;;;5151882;27;20039;-82
2022/01/02 05:19:37;;;;;;;1999.90;999.90;;;14.50;99.90;;;;;;5151086;27;20114;-81
2022/01/02 05:22:03;;;;;;;1802.28;245.10;;;13.80;99.90;;;;;;5150734;27;20035;-88
2022/01/02 05:24:29;;;;;;;1866.50;589.22;;;14.50;99.90;;;;;;5135623;27;20122;-81
2022/01/02 05:26:55;;;;;;;1764.40;777.25;;;13.90;99.90;;;;;;5153739;27;20191;-83
2022/01/02 05:29:22;;;;;;;1999.90;999.90;;;;;;;;;;5147929;27;20035;-81
2022/01/02 05:31:47;;;;;;;1999.90;999.90;;;14.30;99.90;;;;;;5152691;27;20050;-80
2022/01/02 05:34:13;;;;;;;1999.90;999.90;;;13.90;99.90;;;;;;5146577;27;20050;-80
2022/01/02 05:36:39;;;;;;;1999.90;999.90;;;14.20;99.90;;;;;;5149538;27;20062;-85
2022/01/02 05:39:05;;;;;;;1999.90;999.90;;;14.40;99.90;;;;;;5152497;27;20391;-89
2022/01/02 05:41:33;;;;;;;1999.90;999.90;;;14.50;99.90;;;;;;5122398;27;20053;-84
2022/01/02 05:43:58;;;;;;;1999.90;999.90;;;14.40;99.90;;;;;;5152710;27;20050;-88
2022/01/02 05:46:24;;;;;;;1999.90;999.90;;;13.80;99.90;;;;;;5153235;27;20106;-82
2022/01/02 05:48:50;;;;;;;1999.90;999.90;;;14.50;99.90;;;;;;5153761;27;20096;-80
2022/01/02 05:51:16;;;;;;;1999.90;999.90;;;14.00;99.90;;;;;;5152896;27;20103;-80
2022/01/02 05:53:42;;;;;;;1999.90;999.90;;;13.90;99.90;;;;;;5149020;27;20117;-80
2022/01/02 05:56:08;;;;;;;1999.90;999.90;;;14.70;99.90;;;;;;5145991;27;20127;-81
2022/01/02 05:58:34;;;;;;;1999.90;999.90;;;13.80;99.90;;;;;;5151521;27;20042;-81
2022/01/02 06:01:00;;;;;;;1999.90;454.98;;;14.40;99.90;;;;;;5152966;27;20169;-80
2022/01/02 06:03:26;;;;;;;1999.90;999.90;;;14.40;99.90;;;;;;5127198;27;20546;-82
2022/01/02 06:05:52;;;;;;;1999.90;999.90;;;14.60;99.90;;;;;;5132734;27;20099;-80
2022/01/02 06:08:17;;;;;;;1999.90;999.90;;;14.60;99.90;;;;;;5151760;27;20066;-81
2022/01/02 06:10:43;;;;;;;1999.90;999.90;;;14.70;99.90;;;;;;5135716;27;20057;-82
2022/01/02 06:13:09;;;;;;;1999.90;999.90;;;14.10;99.90;;;;;;5134676;27;20146;-91
2022/01/02 06:15:35;;;;;;;1999.90;219.80;;;13.90;99.90;;;;;;5153904;27;20053;-80
2022/01/02 06:18:01;;;;;;;1999.90;999.90;;;13.90;99.90;;;;;;5154682;27;20038;-81
2022/01/02 06:20:27;;;;;;;1999.90;999.90;;;14.80;99.90;;;;;;5153508;27;20035;-82
2022/01/02 06:22:54;;;;;;;1999.90;999.90;;;14.20;99.90;;;;;;5153146;27;20046;-87
2022/01/02 06:25:21;;;;;;;1999.90;999.90;;;14.00;99.90;;;;;;5134213;27;20054;-80
2022/01/02 06:27:48;;;;;;;1999.90;999.90;;;14.00;99.90;;;;;;5144820;27;20031;-80
2022/01/02 06:30:14;;;;;;;1999.90;999.90;;;14.00;99.90;;;;;;5132951;27;20367;-81
2022/01/02 06:32:39;;;;;;;1999.90;999.90;;;14.80;99.90;;;;;;5154016;27;20811;-80
2022/01/02 06:35:06;;;;;;;1999.90;999.90;;;14.10;99.90;;;;;;5150081;27;20054;-81
2022/01/02 06:37:31;;;;;;;1999.90;999.90;;;14.50;99.90;;;;;;5153017;27;20587;-81
2022/01/02 06:39:57;;;;;;;1999.90;999.90;;;14.30;99.90;;;;;;5153161;27;20050;-81
2022/01/02 06:42:23;;;;;;;1999.90;999.90;;;14.70;99.90;;;;;;5134345;27;20101;-81
2022/01/02 06:44:49;;;;;;;1999.90;721.63;;;14.20;99.90;;;;;;5153780;27;20140;-81
2022/01/02 06:47:15;;;;;;;1999.90;611.05;;;14.60;99.90;;;;;;5153583;27;20045;-81
2022/01/02 06:49:41;;;;;;;1499.72;534.72;;;14.20;99.90;;;;;;5108209;27;20098;-83
2022/01/02 06:52:07;;;;;;;1999.90;999.90;;;14.90;99.90;;;;;;5148402;27;20047;-81
2022/01/02 06:54:33;;;;;;;1999.90;447.83;;;14.90;99.90;;;;;;5151223;27;20038;-87
2022/01/02 06:56:59;;;;;;;1768.90;775.03;;;14.40;99.90;;;;;;5152311;27;20065;-84
2022/01/02 06:59:25;;;;;;;1999.90;999.90;;;15.10;99.90;;;;;;5151995;27;20035;-81
2022/01/02 07:01:51;;;;;;;1999.90;999.90;;;15.10;99.90;;;;;;5151587;27;20053;-81
2022/01/02 07:04:16;;;;;;;1522.05;115.18;;;14.90;99.90;;;;;;5152725;27;20068;-83
2022/01/02 07:06:42;;;;;;;1999.90;999.90;;;14.70;99.90;;;;;;5153429;27;20039;-83
2022/01/02 07:09:08;;;;;;;1999.90;999.90;;;14.20;99.90;;;;;;5151688;27;20370;-81
2022/01/02 07:11:33;;;;;;;1999.90;999.90;;;14.20;99.90;;;;;;5149088;27;20050;-80
2022/01/02 07:13:59;;;;;;;1999.90;999.90;;;14.30;99.90;;;;;;5152872;27;20053;-81
2022/01/02 07:16:25;;;;;;;1999.90;237.70;;;14.30;99.90;;;;;;5149838;27;20070;-82
2022/01/02 07:18:50;;;;;;;1999.90;832.38;;;14.10;99.90;;;;;;5145538;27;20039;-82
2022/01/02 07:21:17;;;;;;;1999.90;999.90;;;14.90;99.90;;;;;;5143723;27;20124;-89
2022/01/02 07:23:44;;;;;;;1950.00;653.53;;;14.80;99.90;;;;;;5128783;27;20528;-81
2022/01/02 07:26:10;;;;;;;1999.90;578.08;;;14.60;99.90;;;;;;5152292;27;20049;-81
2022/01/02 07:28:36;;;;;;;1761.32;795.17;;;15.00;99.90;;;;;;5131217;27;20118;-81
2022/01/02 07:31:01;;;;;;;1999.90;999.90;;;14.00;99.90;;;;;;5113563;27;20122;-82
2022/01/02 07:33:27;;;;;;;1999.90;423.08;;;14.80;99.90;;;;;;5151363;27;20043;-83
2022/01/02 07:35:53;;;;;;;1999.90;819.95;;;14.00;99.90;;;;;;5096336;27;20073;-82
2022/01/02 07:38:19;;;;;;;1999.90;999.90;;;14.70;99.90;;;;;;5110963;28;20054;-90
2022/01/02 07:40:45;;;;;;;1828.57;802.80;;;13.70;99.90;;;;;;5110587;28;20087;-81
2022/01/02 07:43:10;;;;;;;1938.03;396.35;;;14.90;99.90;;;;;;5110720;28;20051;-83
2022/01/02 07:45:36;;;;;;;1268.55;170.93;;;13.50;99.90;;;;;;5110507;28;20127;-82
2022/01/02 07:48:02;;;;;;;1999.90;598.85;;;13.60;99.90;;;;;;5111099;28;20054;-82
2022/01/02 07:50:27;;;;;;;1999.90;999.90;;;14.20;99.90;;;;;;5078226;28;20036;-82
2022/01/02 07:52:53;;;;;;;1583.93;418.88;;;14.00;99.90;;;;;;5110451;28;20046;-81
2022/01/02 07:55:20;;;;;;;1999.90;999.90;;;14.40;99.90;;;;;;5110290;28;20050;-84
2022/01/02 07:57:46;;;;;;;1999.90;999.90;;;14.30;99.90;;;;;;5110000;28;20042;-83
2022/01/02 08:00:12;;;;;;;1999.90;999.90;;;13.90;99.90;;;;;;5113003;27;20043;-82
2022/01/02 08:02:38;;;;;;;1999.90;999.90;;;13.90;99.90;;;;;;5105338;28;20047;-81
2022/01/02 08:05:06;;;;;;;1990.63;682.40;;;14.30;99.90;;;;;;5106669;28;20046;-82
2022/01/02 08:07:32;;;;;;;1999.90;999.90;;;14.30;99.90;;;;;;5106539;28;20040;-82
2022/01/02 08:09:58;;;;;;;1999.90;999.90;;;13.40;99.90;;;;;;5108487;28;20484;-81
2022/01/02 08:12:24;;;;;;;1999.90;999.90;;;14.30;99.90;;;;;;5108583;28;20035;-81
2022/01/02 08:14:49;;;;;;;1999.90;999.90;;;14.10;99.90;;;;;;5108721;28;20092;-81
2022/01/02 08:17:15;;;;;;;1999.90;867.85;;;14.30;99.90;;;;;;5109018;28;20070;-82
2022/01/02 08:19:41;;;;;;;1739.43;792.63;;;14.10;99.90;;;;;;5100216;28;20058;-86
2022/01/02 08:22:07;;;;;;;1999.90;999.90;;;14.30;99.90;;;;;;5105875;28;20040;-84
2022/01/02 08:24:32;;;;;;;1851.47;606.10;;;14.20;99.90;;;;;;5108815;28;20047;-81
2022/01/02 08:26:58;;;;;;;1999.90;676.67;;;13.70;99.90;;;;;;5117979;27;20125;-81
2022/01/02 08:29:24;;;;;;;1999.90;999.90;;;13.70;99.90;;;;;;5110492;27;20036;-89
2022/01/02 08:31:49;;;;;;;1999.90;999.90;;;14.20;99.90;;;;;;5108718;28;20044;-82
2022/01/02 08:34:15;;;;;;;1999.90;999.90;;;13.70;99.90;;;;;;5113013;28;20119;-81
2022/01/02 08:36:41;;;;;;;1999.90;999.90;;;14.90;99.90;;;;;;5118085;28;20147;-85
2022/01/02 08:39:06;;;;;;;1999.90;999.90;;;13.60;99.90;;;;;;5129603;28;20099;-82
2022/01/02 08:41:32;;;;;;;1999.90;999.90;;;15.80;99.90;;;;;;5131044;28;20071;-82
2022/01/02 08:43:58;;;;;;;1999.90;833.30;;;13.90;99.90;;;;;;5129294;28;20499;-82
2022/01/02 08:46:24;;;;;;;1999.90;645.55;;;14.10;99.90;;;;;;5121323;27;20062;-81
2022/01/02 08:48:49;;;;;;;1999.90;999.90;;;14.00;99.90;;;;;;5123254;27;20623;-84
2022/01/02 08:51:15;;;;;;;1999.90;663.33;;;13.50;99.90;;;;;;5127858;27;20108;-82
2022/01/02 08:53:41;;;;;;;1999.90;999.90;;;13.50;99.90;;;;;;5127345;27;20074;-82
2022/01/02 08:56:07;;;;;;;1999.90;457.90;;;14.20;99.90;;;;;;5117349;27;20044;-81
2022/01/02 08:58:33;;;;;;;1708.65;787.75;;;13.40;99.90;;;;;;5133616;27;20474;-86
2022/01/02 09:01:00;;;;;;;1788.72;772.60;;;13.80;99.90;;;;;;5146042;27;20041;-82
2022/01/02 09:03:26;;;;;;;1999.90;999.90;;;13.40;99.90;;;;;;5154858;27;20196;-83
2022/01/02 09:05:51;;;;;;;1999.90;999.90;;;13.80;99.90;;;;;;5139752;27;20355;-82
2022/01/02 09:08:17;;;;;;;1999.90;815.15;;;13.60;99.90;;;;;;5142634;27;20035;-82
2022/01/02 09:10:43;;;;;;;1999.90;999.90;;;13.60;99.90;;;;;;5141629;27;20035;-82
2022/01/02 09:13:09;;;;;;;1999.90;164.98;;;13.40;99.90;;;;;;5131516;27;20078;-83
2022/01/02 09:15:35;;;;;;;1999.90;999.90;;;13.70;99.90;;;;;;5140654;27;20454;-82
2022/01/02 09:18:01;;;;;;;1999.90;999.90;;;13.70;99.90;;;;;;5156437;27;20042;-83
2022/01/02 09:20:27;;;;;;;1944.40;366.95;;;13.40;99.90;;;;;;5132256;27;20039;-83
2022/01/02 09:22:54;;;;;;;1874.32;799.80;;;13.80;99.90;;;;;;5155030;27;20154;-81
2022/01/02 09:25:19;;;;;;;1999.90;999.90;;;13.80;99.90;;;;;;5151218;27;20054;-86
2022/01/02 09:27:45;;;;;;;1569.70;443.45;;;13.30;99.90;;;;;;5126343;27;20042;-81
2022/01/02 09:30:11;;;;;;;1718.82;773.92;;;13.90;99.90;;;;;;5148906;27;20047;-81
2022/01/02 09:32:37;;;;;;;1999.90;618.22;;;13.40;99.90;;;;;;5147622;27;20354;-80
2022/01/02 09:35:05;;;;;;;1999.90;999.90;;;13.50;99.90;;;;;;5151327;27;20050;-80
2022/01/02 09:37:30;;;;;;;1999.90;999.90;;;13.40;99.90;;;;;;5154549;27;20217;-81
2022/01/02 09:39:56;;;;;;;1560.07;592.53;;;13.60;99.90;;;;;;5154467;27;20420;-83
2022/01/02 09:42:22;;;;;;;1999.90;999.90;;;14.10;99.90;;;;;;5153007;27;20171;-87
2022/01/02 09:44:48;;;;;;;1999.90;439.20;;;13.40;99.90;;;;;;5135352;27;20066;-81
2022/01/02 09:47:18;;;;;;;1999.90;999.90;;;14.20;99.90;;;;;;5152508;27;20121;-81
2022/01/02 09:49:46;;;;;;;1999.90;999.90;;;14.20;99.90;;;;;;5153342;27;20368;-80
2022/01/02 09:52:12;;;;;;;1357.18;394.23;;;14.00;99.90;;;;;;5135441;27;20135;-80
2022/01/02 09:54:37;;;;;;;1882.28;795.25;;;14.20;99.90;;;;;;5151290;27;20522;-82
2022/01/02 09:57:03;;;;;;;1999.90;813.67;;;13.70;99.90;;;;;;5152631;27;20091;-83
2022/01/02 09:59:29;;;;;;;1999.90;787.53;;;14.10;99.90;;;;;;5152764;27;20050;-82
2022/01/02 10:01:55;;;;;;;1999.90;999.90;;;14.20;99.90;;;;;;5132612;27;20467;-83
2022/01/02 10:04:39;;;;;;;1999.90;999.90;;;13.40;99.90;;;;;;5127339;27;20410;-82
2022/01/02 10:07:06;;;;;;;1999.90;999.90;;;14.30;99.90;;;;;;5147309;27;20046;-82
2022/01/02 10:09:37;;;;;;;1999.90;999.90;;;13.60;99.90;;;;;;5150849;27;20035;-82
2022/01/02 10:12:22;;;;;;;1999.90;999.90;;;14.30;99.90;;;;;;5123898;27;20096;-82
2022/01/02 10:15:10;;;;;;;1999.90;999.90;;;13.60;99.90;;;;;;5144772;27;20100;-81
2022/01/02 10:17:55;;;;;;;1999.90;429.03;;;14.40;99.90;;;;;;5139768;27;20047;-82
2022/01/02 10:20:23;;;;;;;1999.90;999.90;;;16.30;99.90;;;;;;5144796;27;20130;-83
2022/01/02 10:23:05;;;;;;;1999.90;669.40;;;13.70;99.90;;;;;;5148030;27;20524;-82
2022/01/02 10:25:48;;;;;;;1513.47;570.47;;;13.60;99.90;;;;;;5128124;27;20061;-83
2022/01/02 10:28:34;;;;;;;1999.90;999.90;;;14.40;99.90;;;;;;5134858;27;20050;-87
2022/01/02 10:31:08;;;;;;;1999.90;999.90;;;14.20;99.90;;;;;;5134300;27;20050;-83
2022/01/02 10:33:55;;;;;;;1999.90;999.90;;;13.70;99.90;;;;;;5135623;27;20038;-81
2022/01/02 10:36:35;;;;;;;1999.90;999.90;;;13.50;99.90;;;;;;5140414;27;20515;-82
2022/01/02 10:39:03;;;;;;;1999.90;999.90;;;13.30;99.90;;;;;;5125545;27;20538;-82
2022/01/02 10:41:34;;;;;;;1999.90;792.83;;;13.50;99.90;;;;;;5152620;27;20100;-82
2022/01/02 10:44:32;;;;;;;1999.90;145.90;;;14.20;99.90;;;;;;5146572;27;20550;-82
2022/01/02 10:47:16;;;;;;;1999.90;999.90;;;14.30;99.90;;;;;;5105016;27;20282;-82
2022/01/02 10:50:04;;;;;;;1699.68;541.95;;;14.20;99.90;;;;;;5131309;27;20047;-83
2022/01/02 10:52:41;;;;;;;1959.03;831.28;;;14.50;99.90;;;;;;5151168;27;20042;-82
2022/01/02 10:55:14;;;;;;;1999.90;999.90;;;14.20;99.90;;;;;;5140390;27;20095;-82
2022/01/02 10:57:43;;;;;;;1887.00;812.72;;;14.40;99.90;;;;;;5143754;27;20039;-95
2022/01/02 11:00:09;;;;;;;1999.90;999.90;;;13.70;99.90;;;;;;5116980;27;20066;-82
2022/01/02 11:02:36;;;;;;;1999.90;999.90;;;13.30;99.90;;;;;;5132514;27;20134;-82
2022/01/02 11:05:05;;;;;;;1742.35;234.35;;;13.60;99.90;;;;;;5143161;27;20057;-84
2022/01/02 11:07:43;;;;;;;1999.90;999.90;;;13.80;99.90;;;;;;5152619;27;20394;-82
2022/01/02 11:10:11;;;;;;;1999.90;999.90;;;14.20;99.90;;;;;;5123880;27;20125;-82
2022/01/02 11:12:41;;;;;;;1999.90;999.90;;;13.10;99.90;;;;;;5123506;27;20043;-82
2022/01/02 11:15:09;;;;;;;1999.90;999.90;;;14.20;99.90;;;;;;5139868;27;20053;-82
2022/01/02 11:17:35;;;;;;;1292.78;374.42;;;14.30;99.90;;;;;;5148496;27;20509;-82
2022/01/02 11:20:20;;;;;;;1999.90;999.90;;;15.70;99.90;;;;;;5133778;27;20045;-84
2022/01/02 11:23:14;;;;;;;1999.90;999.90;;;13.10;99.90;;;;;;5135562;27;20514;-86
2022/01/02 11:25:52;;;;;;;1978.85;421.92;;;14.30;99.90;;;;;;5150453;27;20054;-82
2022/01/02 11:28:29;;;;;;;1999.90;999.90;;;14.10;99.90;;;;;;5144843;27;20042;-83
2022/01/02 11:30:55;;;;;;;1905.20;790.35;;;13.50;99.90;;;;;;5148446;27;20102;-83
2022/01/02 11:33:30;;;;;;;1999.90;999.90;;;12.90;99.90;;;;;;5154462;27;20047;-83
2022/01/02 11:35:56;;;;;;;1999.90;999.90;;;14.10;99.90;;;;;;5153477;27;20376;-83
2022/01/02 11:38:25;;;;;;;1999.90;999.90;;;15.60;99.90;;;;;;5154393;27;20053;-82
2022/01/02 11:40:58;;;;;;;1999.90;429.88;;;12.90;99.90;;;;;;5135288;27;20046;-82
2022/01/02 11:43:38;;;;;;;1999.90;999.90;;;13.10;99.90;;;;;;5153265;27;20555;-84
2022/01/02 11:46:16;;;;;;;1999.90;999.90;;;14.10;99.90;;;;;;5154397;27;20050;-83
2022/01/02 11:48:42;;;;;;;1999.90;999.90;;;13.40;99.90;;;;;;5153030;27;20493;-86
2022/01/02 11:51:07;;;;;;;1999.90;999.90;;;14.00;99.90;;;;;;5134241;27;20114;-83
2022/01/02 11:53:36;;;;;;;1999.90;999.90;;;14.40;99.90;;;;;;5141813;27;20117;-86
2022/01/02 11:56:04;;;;;;;1999.90;999.90;;;13.20;99.90;;;;;;5152939;27;20078;-86
2022/01/02 11:58:44;;;;;;;1980.50;999.90;;;14.40;99.90;;;;;;5135432;27;20046;-85
2022/01/02 12:01:09;;;;;;;1957.65;994.75;;;12.90;99.90;;;;;;5153588;27;20054;-83
2022/01/02 12:03:38;;;;;;;1939.80;909.50;;;14.70;99.90;;;;;;5153421;27;20101;-83
2022/01/02 12:06:13;;;;;;;1999.90;999.90;;;14.10;99.90;;;;;;5134426;27;20042;-83
2022/01/02 12:08:38;;;;;;;1999.90;999.90;;;13.40;99.90;;;;;;5152638;27;20055;-83
2022/01/02 12:11:41;;;;;;;1999.90;999.90;;;14.20;99.90;;;;;;5146640;27;20071;-79
2022/01/02 12:14:20;;;;;;;1999.90;965.50;;;14.40;99.90;;;;;;5146623;27;20063;-78
2022/01/02 12:16:58;;;;;;;1999.90;682.40;;;14.30;99.90;;;;;;5124242;27;20456;-80